Overview Statistics Trail Chart Weather Telemetry Raw packets
 

This is the latest recevied weather packets stored in our database for station/object S57PNX-8. If no packets are shown the sender has not sent any weather packets the latest 10 day(s).

<< 34 35 36 37 38 39 40 >>
Time Temp. Humidity Pressure Rain* Wind** Luminosity Snow
1787944280 23.33° C 100% 1022 hPa - - - -
1787943380 23.33° C 100% 1022 hPa - - - -
1787942481 23.33° C 100% 1022.2 hPa - - - -
1787941619 23.89° C 100% 1022.5 hPa - - - -
1787941582 23.89° C 100% 1022.5 hPa - - - -
1787940682 24.44° C 96% 1023 hPa - - - -
1787939783 24.44° C 94% 1022.8 hPa - - - -
1787938884 25° C 89% 1022.7 hPa - - - -
1787938262 25° C 87% 1022.5 hPa - - - -
1787937985 25° C 87% 1022.5 hPa - - - -
1787937086 25.56° C 85% 1022.5 hPa - - - -
1787936187 26.11° C 77% 1022.3 hPa - - - -
1787935288 26.67° C 71% 1022.2 hPa - - - -
1787934613 27.78° C 65% 1022.3 hPa - - - -
1787934390 27.78° C 65% 1022.3 hPa - - - -
1787933533 30.56° C 59% 1022.5 hPa - - - -
1787933491 30.56° C 59% 1022.5 hPa - - - -
1787932592 31.11° C 58% 1022.5 hPa - - - -
1787931693 30.56° C 60% 1022.6 hPa - - - -
1787930795 31.67° C 56% 1022.9 hPa - - - -
1787929904 29.44° C 61% 1022.9 hPa - - - -
1787928997 30° C 61% 1022.9 hPa - - - -
1787928097 28.33° C 67% 1023.1 hPa - - - -
1787927198 28.33° C 68% 1023.4 hPa - - - -
1787926299 27.78° C 63% 1023.5 hPa - - - -

* Rain since midnight (hover to see other rain measurements)
** Current wind speed in m/s (hover to see current wind gust speed)